PWSweather.com
Personal Weather Stations
Station Observations
ESTGRALPAZ
Santa Fe, Santa FeAR 3000

Santa FeSanta FeAR 3000

Lat: -31.6280555556, Lon: -60.6908333333

Elevation: 69

Station Type: WH1081

http://www.estaciongralpaz.com.ar

Latest ConditionsUpdated 1:13:00 AM GMT-03:57 Saturday, Sep 22, 2018
Currently Today's Max Today's Min Today's Average
Temperature 73.6°F23.1°C 75.9°F24.4°C 73.6°F23.1°C 74.7°F23.7°C
Dew Point 66.3°F19.1°C 66.6°F19.2°C 66.0°F18.9°C 66.3°F19.1°C
Winds 6.0 mph N9.7 kmh N 7.6 mph -12.2 kmh - - 5.4 mph 8.7 kmh
Wind Gusts 10.7 mph17.2 kmh 10.7 mph17.2 kmh - -
Humidity 78% 78% 72% 75%
Pressure 29.62 in1003.0 mb 29.65 in1004.1 mb 29.62 in1003.0 mb -
Hour Temp Dew Point Humidity Winds Wind Gusts Pressure Precip Precip Rate Daily Precip Total
01:13 AM 73.6°F23.1°C 66.3°F19.1°C 78% 6.0 mph N9.7 kmh N 10.7 mph17.2 kmh 29.62 in1003.0 mb 0.00 in0.0 mm 0.00 in0.0 mm 0.00 in0.0 mm
01:12 AM 73.6°F23.1°C 66.3°F19.1°C 78% 4.5 mph N7.2 kmh N 10.7 mph17.2 kmh 29.63 in1003.4 mb 0.00 in0.0 mm 0.00 in0.0 mm 0.00 in0.0 mm
01:11 AM 73.6°F23.1°C 66.3°F19.1°C 78% 6.0 mph NNE9.7 kmh NNE 10.7 mph17.2 kmh 29.63 in1003.4 mb 0.00 in0.0 mm 0.00 in0.0 mm 0.00 in0.0 mm
01:10 AM 73.6°F23.1°C 66.3°F19.1°C 78% 5.4 mph NNE8.7 kmh NNE 10.7 mph17.2 kmh 29.62 in1003.0 mb 0.00 in0.0 mm 0.00 in0.0 mm 0.00 in0.0 mm
01:09 AM 73.8°F23.2°C 66.1°F18.9°C 77% 5.4 mph NNE8.7 kmh NNE 9.2 mph14.8 kmh 29.62 in1003.0 mb 0.00 in0.0 mm 0.00 in0.0 mm 0.00 in0.0 mm
01:08 AM 73.8°F23.2°C 66.1°F18.9°C 77% 5.4 mph NNE8.7 kmh NNE 9.2 mph14.8 kmh 29.62 in1003.0 mb 0.00 in0.0 mm 0.00 in0.0 mm 0.00 in0.0 mm
01:07 AM 73.8°F23.2°C 66.1°F18.9°C 77% 6.0 mph NE9.7 kmh NE 9.2 mph14.8 kmh 29.63 in1003.4 mb 0.00 in0.0 mm 0.00 in0.0 mm 0.00 in0.0 mm
01:06 AM 73.8°F23.2°C 66.1°F18.9°C 77% 4.5 mph NE7.2 kmh NE 9.2 mph14.8 kmh 29.63 in1003.4 mb 0.00 in0.0 mm 0.00 in0.0 mm 0.00 in0.0 mm
01:05 AM 73.9°F23.3°C 66.3°F19.1°C 77% 5.4 mph NE8.7 kmh NE 9.2 mph14.8 kmh 29.63 in1003.4 mb 0.00 in0.0 mm 0.00 in0.0 mm 0.00 in0.0 mm
01:04 AM 73.9°F23.3°C 66.3°F19.1°C 77% 3.8 mph NE6.1 kmh NE 9.2 mph14.8 kmh 29.63 in1003.4 mb 0.00 in0.0 mm 0.00 in0.0 mm 0.00 in0.0 mm
01:03 AM 73.9°F23.3°C 66.3°F19.1°C 77% 4.5 mph NNE7.2 kmh NNE 9.2 mph14.8 kmh 29.63 in1003.4 mb 0.00 in0.0 mm 0.00 in0.0 mm 0.00 in0.0 mm
01:02 AM 74.1°F23.4°C 66.5°F19.2°C 77% 5.4 mph NE8.7 kmh NE 9.2 mph14.8 kmh 29.62 in1003.0 mb 0.00 in0.0 mm 0.00 in0.0 mm 0.00 in0.0 mm
01:01 AM 74.1°F23.4°C 66.5°F19.2°C 77% 4.5 mph NNE7.2 kmh NNE 9.2 mph14.8 kmh 29.62 in1003.0 mb 0.00 in0.0 mm 0.00 in0.0 mm 0.00 in0.0 mm
01:00 AM 74.1°F23.4°C 66.5°F19.2°C 77% 5.4 mph NNE8.7 kmh NNE 9.2 mph14.8 kmh 29.62 in1003.0 mb 0.00 in0.0 mm 0.00 in0.0 mm 0.00 in0.0 mm
12:59 AM 74.1°F23.4°C 66.5°F19.2°C 77% 3.8 mph NNE6.1 kmh NNE 9.2 mph14.8 kmh 29.63 in1003.4 mb 0.00 in0.0 mm 0.00 in0.0 mm 0.00 in0.0 mm
12:58 AM 74.3°F23.5°C 66.3°F19.1°C 76% 3.1 mph NNE5.0 kmh NNE 9.2 mph14.8 kmh 29.63 in1003.4 mb 0.00 in0.0 mm 0.00 in0.0 mm 0.00 in0.0 mm
12:57 AM 74.3°F23.5°C 66.3°F19.1°C 76% 5.4 mph NNE8.7 kmh NNE 9.2 mph14.8 kmh 29.63 in1003.4 mb 0.00 in0.0 mm 0.00 in0.0 mm 0.00 in0.0 mm
12:56 AM 74.3°F23.5°C 66.3°F19.1°C 76% 5.4 mph N8.7 kmh N 9.2 mph14.8 kmh 29.63 in1003.4 mb 0.00 in0.0 mm 0.00 in0.0 mm 0.00 in0.0 mm
12:55 AM 74.3°F23.5°C 66.3°F19.1°C 76% 6.9 mph N11.1 kmh N 9.2 mph14.8 kmh 29.62 in1003.0 mb 0.00 in0.0 mm 0.00 in0.0 mm 0.00 in0.0 mm
12:54 AM 74.3°F23.5°C 66.3°F19.1°C 76% 4.5 mph NNE7.2 kmh NNE 9.2 mph14.8 kmh 29.63 in1003.4 mb 0.00 in0.0 mm 0.00 in0.0 mm 0.00 in0.0 mm
12:53 AM 74.3°F23.5°C 66.3°F19.1°C 76% 4.5 mph NNE7.2 kmh NNE 9.2 mph14.8 kmh 29.63 in1003.4 mb 0.00 in0.0 mm 0.00 in0.0 mm 0.00 in0.0 mm
12:52 AM 74.3°F23.5°C 66.3°F19.1°C 76% 3.8 mph N6.1 kmh N 9.2 mph14.8 kmh 29.62 in1003.0 mb 0.00 in0.0 mm 0.00 in0.0 mm 0.00 in0.0 mm
12:51 AM 74.3°F23.5°C 66.3°F19.1°C 76% 4.5 mph N7.2 kmh N 9.2 mph14.8 kmh 29.63 in1003.4 mb 0.00 in0.0 mm 0.00 in0.0 mm 0.00 in0.0 mm
12:50 AM 74.3°F23.5°C 66.3°F19.1°C 76% 4.5 mph N7.2 kmh N 9.2 mph14.8 kmh 29.63 in1003.4 mb 0.00 in0.0 mm 0.00 in0.0 mm 0.00 in0.0 mm
12:49 AM 74.3°F23.5°C 66.3°F19.1°C 76% 4.5 mph N7.2 kmh N 9.2 mph14.8 kmh 29.63 in1003.4 mb 0.00 in0.0 mm 0.00 in0.0 mm 0.00 in0.0 mm
12:48 AM 74.3°F23.5°C 66.3°F19.1°C 76% 3.8 mph N6.1 kmh N 9.2 mph14.8 kmh 29.63 in1003.4 mb 0.00 in0.0 mm 0.00 in0.0 mm 0.00 in0.0 mm
12:47 AM 74.5°F23.6°C 66.5°F19.2°C 76% 3.8 mph N6.1 kmh N 9.8 mph15.8 kmh 29.63 in1003.4 mb 0.00 in0.0 mm 0.00 in0.0 mm 0.00 in0.0 mm
12:46 AM 74.5°F23.6°C 66.5°F19.2°C 76% 4.5 mph N7.2 kmh N 9.8 mph15.8 kmh 29.63 in1003.4 mb 0.00 in0.0 mm 0.00 in0.0 mm 0.00 in0.0 mm
12:45 AM 74.5°F23.6°C 66.5°F19.2°C 76% 6.0 mph N9.7 kmh N 9.8 mph15.8 kmh 29.62 in1003.0 mb 0.00 in0.0 mm 0.00 in0.0 mm 0.00 in0.0 mm
12:44 AM 74.5°F23.6°C 66.5°F19.2°C 76% 5.4 mph N8.7 kmh N 9.8 mph15.8 kmh 29.62 in1003.0 mb 0.00 in0.0 mm 0.00 in0.0 mm 0.00 in0.0 mm
12:43 AM 74.5°F23.6°C 66.5°F19.2°C 76% 6.0 mph N9.7 kmh N 9.8 mph15.8 kmh 29.63 in1003.4 mb 0.00 in0.0 mm 0.00 in0.0 mm 0.00 in0.0 mm
12:42 AM 74.5°F23.6°C 66.5°F19.2°C 76% 5.4 mph N8.7 kmh N 9.8 mph15.8 kmh 29.63 in1003.4 mb 0.00 in0.0 mm 0.00 in0.0 mm 0.00 in0.0 mm
12:41 AM 74.5°F23.6°C 66.5°F19.2°C 76% 4.5 mph N7.2 kmh N 9.8 mph15.8 kmh 29.63 in1003.4 mb 0.00 in0.0 mm 0.00 in0.0 mm 0.00 in0.0 mm
12:40 AM 74.7°F23.7°C 66.6°F19.2°C 76% 4.5 mph N7.2 kmh N 9.8 mph15.8 kmh 29.63 in1003.4 mb 0.00 in0.0 mm 0.00 in0.0 mm 0.00 in0.0 mm
12:39 AM 74.7°F23.7°C 66.6°F19.2°C 76% 4.5 mph N7.2 kmh N 9.8 mph15.8 kmh 29.62 in1003.0 mb 0.00 in0.0 mm 0.00 in0.0 mm 0.00 in0.0 mm
12:38 AM 74.7°F23.7°C 66.2°F19.0°C 75% 6.9 mph N11.1 kmh N 9.8 mph15.8 kmh 29.62 in1003.0 mb 0.00 in0.0 mm 0.00 in0.0 mm 0.00 in0.0 mm
12:37 AM 74.7°F23.7°C 66.2°F19.0°C 75% 4.5 mph N7.2 kmh N 9.2 mph14.8 kmh 29.63 in1003.4 mb 0.00 in0.0 mm 0.00 in0.0 mm 0.00 in0.0 mm
12:36 AM 74.7°F23.7°C 66.2°F19.0°C 75% 4.5 mph N7.2 kmh N 9.2 mph14.8 kmh 29.63 in1003.4 mb 0.00 in0.0 mm 0.00 in0.0 mm 0.00 in0.0 mm
12:35 AM 74.7°F23.7°C 66.2°F19.0°C 75% 6.0 mph N9.7 kmh N 9.2 mph14.8 kmh 29.63 in1003.4 mb 0.00 in0.0 mm 0.00 in0.0 mm 0.00 in0.0 mm
12:34 AM 74.7°F23.7°C 66.2°F19.0°C 75% 6.9 mph NNE11.1 kmh NNE 10.7 mph17.2 kmh 29.62 in1003.0 mb 0.00 in0.0 mm 0.00 in0.0 mm 0.00 in0.0 mm
12:33 AM 74.7°F23.7°C 66.2°F19.0°C 75% 6.9 mph N11.1 kmh N 10.7 mph17.2 kmh 29.63 in1003.4 mb 0.00 in0.0 mm 0.00 in0.0 mm 0.00 in0.0 mm
12:32 AM 74.7°F23.7°C 66.2°F19.0°C 75% 6.0 mph N9.7 kmh N 10.7 mph17.2 kmh 29.63 in1003.4 mb 0.00 in0.0 mm 0.00 in0.0 mm 0.00 in0.0 mm
12:31 AM 74.7°F23.7°C 66.2°F19.0°C 75% 6.0 mph N9.7 kmh N 10.7 mph17.2 kmh 29.63 in1003.4 mb 0.00 in0.0 mm 0.00 in0.0 mm 0.00 in0.0 mm
12:30 AM 74.8°F23.8°C 66.4°F19.1°C 75% 6.9 mph N11.1 kmh N 10.7 mph17.2 kmh 29.64 in1003.7 mb 0.00 in0.0 mm 0.00 in0.0 mm 0.00 in0.0 mm
12:29 AM 74.8°F23.8°C 66.4°F19.1°C 75% 7.6 mph N12.2 kmh N 10.7 mph17.2 kmh 29.63 in1003.4 mb 0.00 in0.0 mm 0.00 in0.0 mm 0.00 in0.0 mm
12:28 AM 74.8°F23.8°C 66.4°F19.1°C 75% 6.0 mph N9.7 kmh N 10.7 mph17.2 kmh 29.63 in1003.4 mb 0.00 in0.0 mm 0.00 in0.0 mm 0.00 in0.0 mm
12:27 AM 74.8°F23.8°C 66.4°F19.1°C 75% 7.6 mph N12.2 kmh N 10.7 mph17.2 kmh 29.64 in1003.7 mb 0.00 in0.0 mm 0.00 in0.0 mm 0.00 in0.0 mm
12:26 AM 74.8°F23.8°C 66.4°F19.1°C 75% 6.0 mph N9.7 kmh N 10.7 mph17.2 kmh 29.64 in1003.7 mb 0.00 in0.0 mm 0.00 in0.0 mm 0.00 in0.0 mm
12:25 AM 74.8°F23.8°C 66.4°F19.1°C 75% 6.0 mph N9.7 kmh N 10.7 mph17.2 kmh 29.64 in1003.7 mb 0.00 in0.0 mm 0.00 in0.0 mm 0.00 in0.0 mm
12:24 AM 74.8°F23.8°C 66.4°F19.1°C 75% 7.6 mph N12.2 kmh N 10.7 mph17.2 kmh 29.63 in1003.4 mb 0.00 in0.0 mm 0.00 in0.0 mm 0.00 in0.0 mm
12:23 AM 74.8°F23.8°C 66.4°F19.1°C 75% 6.0 mph N9.7 kmh N 9.8 mph15.8 kmh 29.64 in1003.7 mb 0.00 in0.0 mm 0.00 in0.0 mm 0.00 in0.0 mm
12:22 AM 75.0°F23.9°C 66.6°F19.2°C 75% 7.6 mph N12.2 kmh N 9.8 mph15.8 kmh 29.64 in1003.7 mb 0.00 in0.0 mm 0.00 in0.0 mm 0.00 in0.0 mm
12:21 AM 75.0°F23.9°C 66.6°F19.2°C 75% 5.4 mph N8.7 kmh N 9.2 mph14.8 kmh 29.64 in1003.7 mb 0.00 in0.0 mm 0.00 in0.0 mm 0.00 in0.0 mm
12:20 AM 75.0°F23.9°C 66.6°F19.2°C 75% 6.0 mph N9.7 kmh N 9.2 mph14.8 kmh 29.64 in1003.7 mb 0.00 in0.0 mm 0.00 in0.0 mm 0.00 in0.0 mm
12:19 AM 75.2°F24.0°C 66.4°F19.1°C 74% 4.5 mph N7.2 kmh N 9.8 mph15.8 kmh 29.64 in1003.7 mb 0.00 in0.0 mm 0.00 in0.0 mm 0.00 in0.0 mm
12:18 AM 75.2°F24.0°C 66.0°F18.9°C 73% 6.9 mph N11.1 kmh N 9.8 mph15.8 kmh 29.64 in1003.7 mb 0.00 in0.0 mm 0.00 in0.0 mm 0.00 in0.0 mm
12:17 AM 75.4°F24.1°C 66.2°F19.0°C 73% 5.4 mph N8.7 kmh N 9.8 mph15.8 kmh 29.64 in1003.7 mb 0.00 in0.0 mm 0.00 in0.0 mm 0.00 in0.0 mm
12:16 AM 75.4°F24.1°C 66.2°F19.0°C 73% 5.4 mph N8.7 kmh N 9.8 mph15.8 kmh 29.64 in1003.7 mb 0.00 in0.0 mm 0.00 in0.0 mm 0.00 in0.0 mm
12:15 AM 75.6°F24.2°C 66.3°F19.1°C 73% 4.5 mph N7.2 kmh N 9.8 mph15.8 kmh 29.64 in1003.7 mb 0.00 in0.0 mm 0.00 in0.0 mm 0.00 in0.0 mm
12:14 AM 75.6°F24.2°C 66.3°F19.1°C 73% 5.4 mph N8.7 kmh N 9.8 mph15.8 kmh 29.64 in1003.7 mb 0.00 in0.0 mm 0.00 in0.0 mm 0.00 in0.0 mm
12:13 AM 75.7°F24.3°C 66.1°F18.9°C 72% 5.4 mph NNW8.7 kmh NNW 10.7 mph17.2 kmh 29.65 in1004.1 mb 0.00 in0.0 mm 0.00 in0.0 mm 0.00 in0.0 mm
12:12 AM 75.7°F24.3°C 66.1°F18.9°C 72% 5.4 mph N8.7 kmh N 10.7 mph17.2 kmh 29.64 in1003.7 mb 0.00 in0.0 mm 0.00 in0.0 mm 0.00 in0.0 mm
12:11 AM 75.7°F24.3°C 66.1°F18.9°C 72% 4.5 mph N7.2 kmh N 10.7 mph17.2 kmh 29.65 in1004.1 mb 0.00 in0.0 mm 0.00 in0.0 mm 0.00 in0.0 mm
12:10 AM 75.7°F24.3°C 66.1°F18.9°C 72% 3.8 mph N6.1 kmh N 10.7 mph17.2 kmh 29.64 in1003.7 mb 0.00 in0.0 mm 0.00 in0.0 mm 0.00 in0.0 mm
12:09 AM 75.7°F24.3°C 66.1°F18.9°C 72% 6.0 mph N9.7 kmh N 10.7 mph17.2 kmh 29.64 in1003.7 mb 0.00 in0.0 mm 0.00 in0.0 mm 0.00 in0.0 mm
12:08 AM 75.7°F24.3°C 66.1°F18.9°C 72% 6.0 mph N9.7 kmh N 10.7 mph17.2 kmh 29.65 in1004.1 mb 0.00 in0.0 mm 0.00 in0.0 mm 0.00 in0.0 mm
12:07 AM 75.7°F24.3°C 66.1°F18.9°C 72% 5.4 mph N8.7 kmh N 10.7 mph17.2 kmh 29.64 in1003.7 mb 0.00 in0.0 mm 0.00 in0.0 mm 0.00 in0.0 mm
12:06 AM 75.9°F24.4°C 66.3°F19.1°C 72% 3.8 mph N6.1 kmh N 10.7 mph17.2 kmh 29.65 in1004.1 mb 0.00 in0.0 mm 0.00 in0.0 mm 0.00 in0.0 mm
12:05 AM 75.9°F24.4°C 66.3°F19.1°C 72% 6.0 mph N9.7 kmh N 10.7 mph17.2 kmh 29.65 in1004.1 mb 0.00 in0.0 mm 0.00 in0.0 mm 0.00 in0.0 mm
12:04 AM 75.9°F24.4°C 66.3°F19.1°C 72% 5.4 mph N8.7 kmh N 10.7 mph17.2 kmh 29.64 in1003.7 mb 0.00 in0.0 mm 0.00 in0.0 mm 0.00 in0.0 mm
12:03 AM 75.9°F24.4°C 66.3°F19.1°C 72% 6.0 mph N9.7 kmh N 9.8 mph15.8 kmh 29.64 in1003.7 mb 0.00 in0.0 mm 0.00 in0.0 mm 0.00 in0.0 mm
12:02 AM 75.9°F24.4°C 66.3°F19.1°C 72% 4.5 mph N7.2 kmh N 9.8 mph15.8 kmh 29.64 in1003.7 mb 0.00 in0.0 mm 0.00 in0.0 mm 0.00 in0.0 mm
12:01 AM 75.9°F24.4°C 66.3°F19.1°C 72% 6.0 mph N9.7 kmh N 9.8 mph15.8 kmh 29.64 in1003.7 mb 0.00 in0.0 mm 0.00 in0.0 mm 0.00 in0.0 mm
12:00 AM 75.9°F24.4°C 66.3°F19.1°C 72% 5.4 mph N8.7 kmh N 9.8 mph15.8 kmh 29.64 in1003.7 mb 0.00 in0.0 mm 0.00 in0.0 mm 0.00 in0.0 mm